createdAt,value
2023-04-27T00:04:58.365Z,7.40
2023-04-27T00:10:00.460Z,7.40
2023-04-27T00:15:02.211Z,7.40
2023-04-27T00:20:05.546Z,7.30
2023-04-27T00:25:07.729Z,7.20
2023-04-27T00:30:09.898Z,7.20
2023-04-27T00:35:11.838Z,7.30
2023-04-27T00:40:13.790Z,7.30
2023-04-27T00:45:15.543Z,7.30
2023-04-27T00:50:23.194Z,7.20
2023-04-27T00:55:26.104Z,7.20
2023-04-27T01:00:28.027Z,7.20
2023-04-27T01:05:32.000Z,7.10
2023-04-27T01:10:34.364Z,7.20
2023-04-27T01:15:36.192Z,7.00
2023-04-27T01:20:38.655Z,7.00
2023-04-27T01:25:40.740Z,7.00
2023-04-27T01:30:42.586Z,6.90
2023-04-27T01:35:44.291Z,6.90
2023-04-27T01:40:45.999Z,7.00
2023-04-27T01:45:48.498Z,6.90
2023-04-27T01:50:50.341Z,6.80
2023-04-27T01:55:52.188Z,6.80
2023-04-27T02:00:53.937Z,6.90
2023-04-27T02:05:55.677Z,6.90
2023-04-27T02:10:57.415Z,6.80
2023-04-27T02:16:02.001Z,6.80
2023-04-27T02:21:09.820Z,6.70
2023-04-27T02:26:22.245Z,6.70
2023-04-27T02:31:24.375Z,6.70
2023-04-27T02:36:26.177Z,6.60
2023-04-27T02:41:33.054Z,6.60
2023-04-27T02:46:34.812Z,6.60
2023-04-27T02:51:36.547Z,6.50
2023-04-27T02:56:38.343Z,6.40
2023-04-27T03:01:40.221Z,6.40
2023-04-27T03:06:42.165Z,6.50
2023-04-27T03:11:44.151Z,6.40
2023-04-27T03:16:45.923Z,6.40
2023-04-27T03:21:48.500Z,6.40
2023-04-27T03:26:51.144Z,6.40
2023-04-27T03:31:52.939Z,6.30
2023-04-27T03:36:54.810Z,6.30
2023-04-27T03:41:57.514Z,6.30
2023-04-27T03:46:59.593Z,6.30
2023-04-27T03:52:01.478Z,6.40
2023-04-27T03:57:04.398Z,6.40
2023-04-27T04:02:06.747Z,6.40
2023-04-27T04:07:08.666Z,6.40
2023-04-27T04:12:10.651Z,6.40
2023-04-27T04:17:12.447Z,6.40
2023-04-27T04:22:15.856Z,6.40
2023-04-27T04:27:17.862Z,6.40
2023-04-27T04:32:20.197Z,6.40
2023-04-27T04:37:22.880Z,6.40
2023-04-27T04:42:25.514Z,6.40
2023-04-27T04:47:27.264Z,6.50
2023-04-27T04:52:29.090Z,6.40
2023-04-27T04:57:31.380Z,6.50
2023-04-27T05:02:33.499Z,6.70
2023-04-27T05:07:35.500Z,6.70
2023-04-27T05:12:37.203Z,6.70
2023-04-27T05:17:38.991Z,6.80
2023-04-27T05:22:41.031Z,6.80
2023-04-27T05:27:42.754Z,6.90
2023-04-27T05:32:44.460Z,6.70
2023-04-27T05:37:46.219Z,6.90
2023-04-27T05:42:48.296Z,6.90
2023-04-27T05:47:50.056Z,7.00
2023-04-27T05:52:51.774Z,7.10
2023-04-27T05:58:04.606Z,7.30
2023-04-27T06:03:09.981Z,7.30
2023-04-27T06:08:12.469Z,7.20
2023-04-27T06:13:14.145Z,6.90
2023-04-27T06:18:16.228Z,7.00
2023-04-27T06:23:17.926Z,7.10
2023-04-27T06:28:19.647Z,6.90
2023-04-27T06:33:21.874Z,7.00
2023-04-27T06:38:23.727Z,7.00
2023-04-27T06:43:25.886Z,7.00
2023-04-27T06:48:27.680Z,7.20
2023-04-27T06:53:31.436Z,7.20
2023-04-27T06:58:33.202Z,7.50
2023-04-27T07:03:36.586Z,7.40
2023-04-27T07:08:38.671Z,7.40
2023-04-27T07:13:40.445Z,7.60
2023-04-27T07:18:43.421Z,7.70
2023-04-27T07:23:46.474Z,7.70
2023-04-27T07:28:48.201Z,7.90
2023-04-27T07:33:49.920Z,8.00
2023-04-27T07:38:51.656Z,8.40
2023-04-27T07:43:53.454Z,8.40
2023-04-27T07:48:55.183Z,8.90
2023-04-27T07:53:56.937Z,9.50
2023-04-27T07:58:59.070Z,9.20
2023-04-27T08:04:01.198Z,9.10
2023-04-27T08:09:04.297Z,9.00
2023-04-27T08:14:08.943Z,9.10
2023-04-27T08:19:11.755Z,9.40
2023-04-27T08:24:13.711Z,9.50
2023-04-27T08:29:26.865Z,9.40
2023-04-27T08:34:29.604Z,9.50
2023-04-27T08:39:31.345Z,9.40
2023-04-27T08:44:33.438Z,9.40
2023-04-27T08:49:36.020Z,8.80
2023-04-27T08:54:37.731Z,8.90
2023-04-27T08:59:40.518Z,9.00
2023-04-27T09:04:42.546Z,9.50
2023-04-27T09:09:45.320Z,9.20
2023-04-27T09:15:06.512Z,9.40
2023-04-27T09:20:10.743Z,9.60
2023-04-27T09:25:31.288Z,9.80
2023-04-27T09:30:33.085Z,9.70
2023-04-27T09:35:34.856Z,9.50
2023-04-27T09:40:36.909Z,9.50
2023-04-27T09:45:39.281Z,9.30
2023-04-27T09:50:42.457Z,9.60
2023-04-27T09:55:59.132Z,9.80
2023-04-27T10:01:17.115Z,9.90
2023-04-27T10:06:29.575Z,10.00
2023-04-27T10:11:42.215Z,10.40
2023-04-27T10:16:51.932Z,10.60
2023-04-27T10:22:02.127Z,10.10
2023-04-27T10:27:09.032Z,10.00
2023-04-27T10:32:13.495Z,10.10
2023-04-27T10:37:16.570Z,10.50
2023-04-27T10:42:28.781Z,11.40
2023-04-27T10:47:39.211Z,11.80
2023-04-27T10:52:44.600Z,12.10
2023-04-27T10:57:51.811Z,12.30
2023-04-27T11:02:55.317Z,11.50
2023-04-27T11:08:08.241Z,11.90
2023-04-27T11:13:12.334Z,12.10
2023-04-27T11:18:15.476Z,11.80
2023-04-27T11:23:28.902Z,11.60
2023-04-27T11:28:31.533Z,11.00
2023-04-27T11:33:34.162Z,11.10
2023-04-27T11:38:37.542Z,10.90
2023-04-27T11:43:48.597Z,11.50
2023-04-27T11:48:50.663Z,11.80
2023-04-27T11:53:52.715Z,11.60
2023-04-27T11:58:56.385Z,11.30
2023-04-27T12:04:00.734Z,11.30
2023-04-27T12:09:05.193Z,11.10
2023-04-27T12:14:08.045Z,11.40
2023-04-27T12:19:09.792Z,11.60
2023-04-27T12:24:11.767Z,11.50
2023-04-27T12:29:14.244Z,10.90
2023-04-27T12:34:16.813Z,11.10
2023-04-27T12:39:20.419Z,11.20
2023-04-27T12:44:22.606Z,11.60
2023-04-27T12:49:24.325Z,11.10
2023-04-27T12:54:26.167Z,11.50
2023-04-27T12:59:28.009Z,12.00
2023-04-27T13:04:31.328Z,12.40
2023-04-27T13:09:33.550Z,11.80
2023-04-27T13:14:35.410Z,11.90
2023-04-27T13:19:37.129Z,12.40
2023-04-27T13:24:38.993Z,13.10
2023-04-27T13:29:40.895Z,13.40
2023-04-27T13:34:42.609Z,13.80
2023-04-27T13:39:44.450Z,13.90
2023-04-27T13:44:46.193Z,13.30
2023-04-27T13:49:47.930Z,13.30
2023-04-27T13:54:49.754Z,14.50
2023-04-27T13:59:51.507Z,15.10
2023-04-27T14:04:53.415Z,16.30
2023-04-27T14:09:55.328Z,15.90
2023-04-27T14:14:58.435Z,15.00
2023-04-27T14:20:00.467Z,13.60
2023-04-27T14:25:02.490Z,13.60
2023-04-27T14:30:05.248Z,13.10
2023-04-27T14:35:07.618Z,12.40
2023-04-27T14:40:10.215Z,13.20
2023-04-27T14:45:12.405Z,14.00
2023-04-27T14:50:14.246Z,13.70
2023-04-27T14:55:17.962Z,13.20
2023-04-27T15:00:19.910Z,13.80
2023-04-27T15:05:21.689Z,13.90
2023-04-27T15:10:23.426Z,13.90
2023-04-27T15:15:25.204Z,13.90
2023-04-27T15:20:27.284Z,13.70
2023-04-27T15:25:29.037Z,13.80
2023-04-27T15:30:31.069Z,13.00
2023-04-27T15:35:32.895Z,12.70
2023-04-27T15:40:35.073Z,12.40
2023-04-27T15:45:37.152Z,12.30
2023-04-27T15:50:38.930Z,12.10
2023-04-27T15:55:40.736Z,12.10
2023-04-27T16:00:42.653Z,11.70
2023-04-27T16:05:44.487Z,11.60
2023-04-27T16:10:46.306Z,11.90
2023-04-27T16:15:48.014Z,11.70
2023-04-27T16:20:49.708Z,11.70
2023-04-27T16:25:51.482Z,12.00
2023-04-27T16:30:53.311Z,11.90
2023-04-27T16:35:57.042Z,11.80
2023-04-27T16:40:58.883Z,11.70
2023-04-27T16:46:00.885Z,11.50
2023-04-27T16:51:02.687Z,11.50
2023-04-27T16:56:04.704Z,11.60
2023-04-27T17:01:06.650Z,11.50
2023-04-27T17:06:08.872Z,11.40
2023-04-27T17:11:11.333Z,11.30
2023-04-27T17:16:13.603Z,11.30
2023-04-27T17:21:16.652Z,11.10
2023-04-27T17:26:21.300Z,11.10
2023-04-27T17:31:23.075Z,11.00
2023-04-27T17:36:24.835Z,10.90
2023-04-27T17:41:26.895Z,10.80
2023-04-27T17:46:28.695Z,10.80
2023-04-27T17:51:32.772Z,10.70
2023-04-27T17:56:34.603Z,10.70
2023-04-27T18:01:36.530Z,10.60
2023-04-27T18:06:38.269Z,10.50
2023-04-27T18:11:40.424Z,10.30
2023-04-27T18:16:42.807Z,10.30
2023-04-27T18:21:44.696Z,10.20
2023-04-27T18:26:46.439Z,10.10
2023-04-27T18:31:49.230Z,10.00
2023-04-27T18:36:52.058Z,9.90
2023-04-27T18:41:54.071Z,9.70
2023-04-27T18:46:55.813Z,9.60
2023-04-27T18:51:57.491Z,9.50
2023-04-27T18:57:00.023Z,9.40
2023-04-27T19:02:01.859Z,9.20
2023-04-27T19:07:03.653Z,9.00
2023-04-27T19:12:05.430Z,8.90
2023-04-27T19:17:07.917Z,8.80
2023-04-27T19:22:09.997Z,8.70
2023-04-27T19:27:11.804Z,8.50
2023-04-27T19:32:13.576Z,8.40
2023-04-27T19:37:15.907Z,8.40
2023-04-27T19:42:17.848Z,8.40
2023-04-27T19:47:19.679Z,8.30
2023-04-27T19:52:21.416Z,8.30
2023-04-27T19:57:23.213Z,8.10
2023-04-27T20:02:25.158Z,8.10
2023-04-27T20:07:26.968Z,7.90
2023-04-27T20:12:43.640Z,7.90
2023-04-27T20:17:49.650Z,7.80
2023-04-27T20:22:51.424Z,7.80
2023-04-27T20:27:53.128Z,7.80
2023-04-27T20:32:56.394Z,7.70
2023-04-27T20:37:58.155Z,7.70
2023-04-27T20:43:01.290Z,7.60
2023-04-27T20:48:03.177Z,7.50
2023-04-27T20:53:05.230Z,7.40
2023-04-27T20:58:06.958Z,7.40
2023-04-27T21:03:08.875Z,7.40
2023-04-27T21:08:10.781Z,7.30
2023-04-27T21:13:12.929Z,7.30
2023-04-27T21:18:29.083Z,7.30
2023-04-27T21:23:35.361Z,7.20
2023-04-27T21:28:37.452Z,7.10
2023-04-27T21:33:39.321Z,7.00
2023-04-27T21:38:41.033Z,7.00
2023-04-27T21:43:43.368Z,6.90
2023-04-27T21:48:45.158Z,6.90
2023-04-27T21:53:46.925Z,7.00
2023-04-27T21:58:48.672Z,6.90
2023-04-27T22:03:50.758Z,6.80
2023-04-27T22:08:52.742Z,6.70
2023-04-27T22:13:54.599Z,6.70
2023-04-27T22:18:57.306Z,6.60
2023-04-27T22:23:59.071Z,6.60
2023-04-27T22:29:00.835Z,6.50
2023-04-27T22:34:03.575Z,6.50
2023-04-27T22:39:07.032Z,6.50
2023-04-27T22:44:08.989Z,6.50
2023-04-27T22:49:10.747Z,6.40
2023-04-27T22:54:12.766Z,6.40
2023-04-27T22:59:14.646Z,6.50
2023-04-27T23:04:17.152Z,6.40
2023-04-27T23:09:20.376Z,6.40
2023-04-27T23:14:22.549Z,6.30
2023-04-27T23:19:24.332Z,6.30
2023-04-27T23:24:26.093Z,6.30
2023-04-27T23:29:27.877Z,6.40
2023-04-27T23:34:31.794Z,6.30
2023-04-27T23:39:33.526Z,6.20
2023-04-27T23:44:35.252Z,6.20
2023-04-27T23:49:36.970Z,6.20
2023-04-27T23:54:38.832Z,6.20
2023-04-27T23:59:40.581Z,6.20
